Time;durP1;ratioP1;P1;durP2;ratioP2;P2;SDS_P1;SDS_P2;PMS_P1;PMS_P2;Temp;Humidity;BMP_temperature;BMP_pressure;BME280_temperature;BME280_humidity;BME280_pressure;Samples;Min_cycle;Max_cycle;Signal;HPM_P1;HPM_P2
2023/09/13 00:02:16;;;;;;;19.48;18.48;;;;;;;-141.02;77.09;42509.59;5136342;27;20279;-59
2023/09/13 00:04:43;;;;;;;19.48;18.48;;;;;;;-141.02;77.12;42528.78;5136179;27;20249;-59
2023/09/13 00:07:12;;;;;;;19.63;18.63;;;;;;;-141.02;78.71;42455.84;5136900;27;20209;-59
2023/09/13 00:09:41;;;;;;;19.23;18.27;;;;;;;-141.02;81.04;42367.56;5136357;27;20188;-59
2023/09/13 00:12:08;;;;;;;19.08;18.17;;;;;;;-141.02;82.92;42288.84;5136296;27;20608;-59
2023/09/13 00:14:35;;;;;;;19.23;18.33;;;;;;;-141.02;83.50;42252.38;5135836;27;20189;-59
2023/09/13 00:17:02;;;;;;;18.45;17.55;;;;;;;-141.02;87.61;42052.78;5136193;27;20197;-59
2023/09/13 00:19:30;;;;;;;18.95;17.98;;;;;;;-141.02;88.61;41979.84;5135814;27;20197;-58
2023/09/13 00:21:57;;;;;;;19.25;18.25;;;;;;;-141.02;90.03;41853.16;5136022;27;20253;-59
2023/09/13 00:24:26;;;;;;;18.52;17.63;;;;;;;-141.02;89.03;41876.19;5136031;27;20202;-59
2023/09/13 00:26:53;;;;;;;18.08;17.17;;;;;;;-141.02;89.24;41849.34;5135997;27;20199;-59
2023/09/13 00:29:20;;;;;;;18.27;17.38;;;;;;;-141.02;90.52;41780.25;5135439;27;20188;-59
2023/09/13 00:31:47;;;;;;;18.40;17.50;;;;;;;-141.02;91.10;41701.56;5135524;27;20654;-59
2023/09/13 00:34:14;;;;;;;18.63;17.73;;;;;;;-141.02;91.44;41657.41;5135833;27;20197;-58
2023/09/13 00:36:41;;;;;;;18.35;17.55;;;;;;;-141.02;93.33;41469.34;5135836;27;20641;-58
2023/09/13 00:39:08;;;;;;;17.92;17.13;;;;;;;-141.02;93.88;41404.09;5135764;27;20287;-58
2023/09/13 00:41:36;;;;;;;17.92;17.13;;;;;;;-141.02;95.95;41231.41;5135633;27;20196;-59
2023/09/13 00:44:03;;;;;;;17.95;17.15;;;;;;;-141.02;96.40;41106.69;5135294;27;20283;-59
2023/09/13 00:46:31;;;;;;;18.00;17.20;;;;;;;-141.02;96.10;41054.88;5135302;27;20193;-59
2023/09/13 00:48:58;;;;;;;18.25;17.45;;;;;;;-141.02;97.19;40947.44;5135542;27;20189;-59
2023/09/13 00:51:26;;;;;;;17.73;16.92;;;;;;;-141.02;99.56;40678.84;5135291;27;20192;-59
2023/09/13 00:53:53;;;;;;;16.88;16.17;;;;;;;-141.02;100.00;40425.59;5135125;27;20658;-59
2023/09/13 00:56:20;;;;;;;17.50;16.80;;;;;;;-141.02;100.00;40283.63;5135382;27;20199;-59
2023/09/13 00:58:51;;;;;;;17.17;16.48;;;;;;;-141.02;100.00;40132.09;5135333;27;20199;-59
2023/09/13 01:01:18;;;;;;;17.23;16.52;;;;;;;-141.02;100.00;40072.63;5135318;27;20189;-59
2023/09/13 01:03:46;;;;;;;17.00;16.30;;;;;;;-141.02;100.00;39959.47;5135270;27;20259;-59
2023/09/13 01:06:14;;;;;;;16.88;16.17;;;;;;;-141.02;100.00;39832.88;5134720;27;20232;-58
2023/09/13 01:08:42;;;;;;;16.98;16.27;;;;;;;-141.02;100.00;39796.44;5135197;27;20222;-59
2023/09/13 01:11:10;;;;;;;16.65;15.95;;;;;;;-141.02;100.00;39934.53;5134801;27;20196;-58
2023/09/13 01:13:38;;;;;;;17.10;16.40;;;;;;;-141.02;100.00;39892.34;5135039;27;20653;-59
2023/09/13 01:16:16;;;;;;;16.60;15.90;;;;;;;-141.02;100.00;39900.00;5135027;27;20197;-59
2023/09/13 01:18:52;;;;;;;16.80;16.10;;;;;;;-141.02;100.00;39924.94;5134679;27;20185;-59
2023/09/13 01:21:32;;;;;;;16.08;15.48;;;;;;;-141.02;100.00;39928.78;5134701;27;20241;-59
2023/09/13 01:24:25;;;;;;;16.10;15.50;;;;;;;-141.02;100.00;39936.44;5134889;27;20211;-59
2023/09/13 01:27:22;;;;;;;16.33;15.70;;;;;;;-141.02;100.00;39953.72;5134820;27;20184;-59
2023/09/13 01:29:52;;;;;;;16.90;16.20;;;;;;;-141.02;100.00;39972.88;5129465;27;20284;-59
2023/09/13 01:32:20;;;;;;;16.67;15.98;;;;;;;-141.02;100.00;39896.16;5134473;27;20192;-59
2023/09/13 01:34:47;;;;;;;16.80;16.10;;;;;;;-141.02;100.00;39784.91;5134695;27;20197;-59
2023/09/13 01:37:14;;;;;;;16.55;15.85;;;;;;;-141.02;100.00;39673.69;5134712;27;20291;-59
2023/09/13 01:39:41;;;;;;;16.10;15.50;;;;;;;-141.02;100.00;39666.00;5134566;27;20198;-58
2023/09/13 01:42:11;;;;;;;16.25;15.65;;;;;;;-141.02;100.00;39685.19;5134103;27;20733;-58
2023/09/13 01:44:41;;;;;;;16.35;15.73;;;;;;;-141.02;100.00;39581.63;5134500;27;20207;-58
2023/09/13 01:47:10;;;;;;;16.48;15.77;;;;;;;-141.02;100.00;39493.41;5134110;27;20214;-58
2023/09/13 01:49:38;;;;;;;15.60;15.00;;;;;;;-141.02;100.00;39504.91;5134346;27;20193;-58
2023/09/13 01:52:06;;;;;;;15.85;15.25;;;;;;;-141.02;100.00;39512.56;5133959;27;20636;-58
2023/09/13 01:54:34;;;;;;;16.17;15.57;;;;;;;-141.02;100.00;39489.56;5134262;27;20372;-58
2023/09/13 01:57:01;;;;;;;15.82;15.23;;;;;;;-141.02;100.00;39420.53;5134173;27;20294;-58
2023/09/13 01:59:28;;;;;;;15.13;14.63;;;;;;;-141.02;100.00;39303.53;5133846;27;20192;-58
2023/09/13 02:01:55;;;;;;;15.10;14.60;;;;;;;-141.02;100.00;39228.75;5133756;27;20196;-59
2023/09/13 02:04:24;;;;;;;15.10;14.60;;;;;;;-141.02;100.00;39175.06;5134199;27;20199;-59
2023/09/13 02:06:51;;;;;;;14.98;14.48;;;;;;;-141.02;100.00;39129.03;5134091;27;20227;-58
2023/09/13 02:09:18;;;;;;;14.85;14.35;;;;;;;-141.02;100.00;39171.22;5133963;27;20192;-58
2023/09/13 02:11:45;;;;;;;15.00;14.50;;;;;;;-141.02;100.00;39102.19;5132953;27;20279;-58
2023/09/13 02:14:12;;;;;;;14.85;14.35;;;;;;;-141.02;100.00;39144.38;5133918;27;20207;-58
2023/09/13 02:16:39;;;;;;;14.70;14.20;;;;;;;-141.02;100.00;39178.88;5133512;27;20196;-67
2023/09/13 02:19:06;;;;;;;14.52;14.02;;;;;;;-141.02;100.00;39098.34;5133540;27;20654;-58
2023/09/13 02:21:34;;;;;;;14.68;14.18;;;;;;;-141.02;100.00;39056.16;5133705;27;20200;-58
2023/09/13 02:24:02;;;;;;;13.98;13.48;;;;;;;-141.02;100.00;38948.78;5133698;27;20224;-58
2023/09/13 02:26:30;;;;;;;13.93;13.43;;;;;;;-141.02;100.00;38921.94;5133664;27;20220;-60
2023/09/13 02:28:57;;;;;;;14.45;13.95;;;;;;;-141.02;100.00;38895.09;5133645;27;20192;-59
2023/09/13 02:31:26;;;;;;;14.73;14.23;;;;;;;-141.02;100.00;38822.22;5133360;27;20188;-59
2023/09/13 02:33:53;;;;;;;14.20;13.70;;;;;;;-141.02;100.00;38801.13;5133304;27;20283;-59
2023/09/13 02:36:20;;;;;;;14.52;14.02;;;;;;;-141.02;100.00;38741.69;5133628;27;20189;-59
2023/09/13 02:38:49;;;;;;;14.07;13.57;;;;;;;-141.02;100.00;38734.03;5133211;27;20202;-58
2023/09/13 02:41:16;;;;;;;14.20;13.70;;;;;;;-141.02;100.00;38688.00;5133199;27;20582;-59
2023/09/13 02:43:43;;;;;;;13.98;13.52;;;;;;;-141.02;100.00;38695.66;5133016;27;20754;-59
2023/09/13 02:46:10;;;;;;;13.45;13.05;;;;;;;-141.02;100.00;38632.41;5133471;27;20261;-59
2023/09/13 02:48:37;;;;;;;14.10;13.60;;;;;;;-141.02;100.00;38665.00;5133032;27;20548;-59
2023/09/13 02:51:04;;;;;;;14.00;13.50;;;;;;;-141.02;100.00;38716.75;5133316;27;20226;-59
2023/09/13 02:53:31;;;;;;;14.00;13.50;;;;;;;-141.02;100.00;38764.69;5133336;27;20199;-58
2023/09/13 02:56:05;;;;;;;13.98;13.48;;;;;;;-141.02;100.00;38766.63;5133289;27;20203;-59
2023/09/13 02:58:32;;;;;;;13.82;13.35;;;;;;;-141.02;100.00;38722.50;5133816;27;20189;-58
2023/09/13 03:01:03;;;;;;;14.35;13.85;;;;;;;-141.02;100.00;38753.19;5132996;27;20195;-58
2023/09/13 03:03:31;;;;;;;13.43;13.02;;;;;;;-141.02;100.00;38783.88;5133167;27;20212;-58
2023/09/13 03:06:07;;;;;;;13.40;13.00;;;;;;;-141.02;100.00;38758.94;5132708;27;20274;-58
2023/09/13 03:08:34;;;;;;;13.57;13.18;;;;;;;-141.02;100.00;38770.44;5132941;27;20234;-58
2023/09/13 03:11:11;;;;;;;13.32;12.93;;;;;;;-141.02;100.00;38787.72;5132885;27;20188;-58
2023/09/13 03:13:38;;;;;;;13.25;12.85;;;;;;;-141.02;100.00;38837.56;5132832;27;20196;-59
2023/09/13 03:16:11;;;;;;;13.30;12.90;;;;;;;-141.02;100.00;38799.22;5132845;27;20701;-58
2023/09/13 03:18:38;;;;;;;13.43;13.02;;;;;;;-141.02;100.00;38741.69;5132767;27;20634;-59
2023/09/13 03:21:08;;;;;;;13.10;12.70;;;;;;;-141.02;100.00;38714.84;5132741;27;20195;-59
2023/09/13 03:23:39;;;;;;;13.15;12.75;;;;;;;-141.02;100.00;38703.34;5136929;27;20267;-59
2023/09/13 03:26:14;;;;;;;13.00;12.60;;;;;;;-141.02;100.00;38701.41;5137236;27;20192;-59
2023/09/13 03:28:41;;;;;;;12.40;12.00;;;;;;;-141.02;100.00;38720.59;5137152;27;20227;-58
2023/09/13 03:31:11;;;;;;;12.40;12.00;;;;;;;-141.02;100.00;38728.25;5136786;27;20548;-58
2023/09/13 03:33:40;;;;;;;12.43;12.02;;;;;;;-141.02;100.00;38757.03;5136720;27;20562;-58
2023/09/13 03:36:07;;;;;;;13.10;12.70;;;;;;;-141.02;100.00;38818.38;5136692;27;20619;-58
2023/09/13 03:38:34;;;;;;;13.13;12.73;;;;;;;-141.02;100.00;38812.63;5136947;27;20273;-59
2023/09/13 03:41:03;;;;;;;12.75;12.35;;;;;;;-141.02;100.00;38795.38;5136536;27;20197;-58
2023/09/13 03:43:32;;;;;;;13.05;12.65;;;;;;;-141.02;100.00;38827.97;5136557;27;20227;-58
2023/09/13 03:45:59;;;;;;;13.05;12.65;;;;;;;-141.02;100.00;38822.22;5136733;27;20206;-59
2023/09/13 03:48:26;;;;;;;12.90;12.50;;;;;;;-141.02;100.00;38856.72;5136461;27;20630;-59
2023/09/13 03:50:53;;;;;;;12.82;12.43;;;;;;;-141.02;100.00;38937.28;5136357;27;20747;-58
2023/09/13 03:53:20;;;;;;;12.90;12.50;;;;;;;-141.02;100.00;39002.47;5136307;27;20232;-58
2023/09/13 03:55:47;;;;;;;12.40;12.00;;;;;;;-141.02;100.00;39063.81;5136296;27;20199;-58
2023/09/13 03:58:14;;;;;;;12.75;12.35;;;;;;;-141.02;100.00;39144.38;5136227;27;20650;-58
2023/09/13 04:00:42;;;;;;;13.15;12.75;;;;;;;-141.02;100.00;39201.91;5136483;27;20279;-59
2023/09/13 04:03:09;;;;;;;12.98;12.57;;;;;;;-141.02;100.00;39278.59;5136024;27;20221;-59
2023/09/13 04:05:36;;;;;;;12.80;12.40;;;;;;;-141.02;100.00;39324.63;5136080;27;20238;-58
2023/09/13 04:08:04;;;;;;;12.57;12.18;;;;;;;-141.02;100.00;39399.44;5136058;27;20192;-59
2023/09/13 04:10:31;;;;;;;12.68;12.27;;;;;;;-141.02;100.00;39489.56;5136308;27;20193;-58
2023/09/13 04:12:58;;;;;;;12.82;12.43;;;;;;;-141.02;100.00;39543.25;5135985;27;20199;-59
2023/09/13 04:15:24;;;;;;;13.15;12.75;;;;;;;-141.02;100.00;39623.81;5135905;27;20200;-59
2023/09/13 04:17:53;;;;;;;12.93;12.52;;;;;;;-141.02;100.00;39667.94;5136174;27;20198;-58
2023/09/13 04:20:20;;;;;;;13.20;12.80;;;;;;;-141.02;100.00;39727.38;5136132;27;20195;-59
2023/09/13 04:22:47;;;;;;;13.32;12.93;;;;;;;-141.02;100.00;39781.09;5136060;27;20553;-58
2023/09/13 04:25:13;;;;;;;13.57;13.18;;;;;;;-141.02;100.00;39800.25;5135830;27;20203;-58
2023/09/13 04:27:43;;;;;;;13.23;12.82;;;;;;;-141.02;100.00;39834.78;5135638;27;20774;-58
2023/09/13 04:30:12;;;;;;;13.38;12.98;;;;;;;-141.02;100.00;39853.97;5135982;27;20283;-58
2023/09/13 04:32:39;;;;;;;13.57;13.18;;;;;;;-141.02;100.00;39865.47;5135904;27;20196;-58
2023/09/13 04:35:08;;;;;;;13.27;12.88;;;;;;;-141.02;100.00;39926.84;5135134;27;20199;-59
2023/09/13 04:37:35;;;;;;;12.68;12.27;;;;;;;-141.02;100.00;39896.16;5135497;27;20689;-58
2023/09/13 04:40:05;;;;;;;13.13;12.73;;;;;;;-141.02;100.00;39946.03;5135468;27;20199;-58
2023/09/13 04:42:36;;;;;;;12.93;12.52;;;;;;;-141.02;100.00;39965.22;5135439;27;20691;-58
2023/09/13 04:45:04;;;;;;;12.60;12.20;;;;;;;-141.02;100.00;39995.91;5135328;27;20595;-59
2023/09/13 04:47:31;;;;;;;13.00;12.60;;;;;;;-141.02;100.00;40036.19;5135379;27;20283;-67
2023/09/13 04:49:58;;;;;;;13.15;12.75;;;;;;;-141.02;100.00;40003.59;5135588;27;20195;-59
2023/09/13 04:52:26;;;;;;;13.98;13.48;;;;;;;-141.02;100.00;40028.50;5135559;27;20204;-59
2023/09/13 04:54:53;;;;;;;14.50;14.00;;;;;;;-141.02;100.00;40076.47;5135119;27;20574;-58
2023/09/13 04:57:20;;;;;;;14.10;13.60;;;;;;;-141.02;100.00;40097.56;5135123;27;20201;-58
2023/09/13 04:59:48;;;;;;;13.73;13.23;;;;;;;-141.02;100.00;40084.16;5135085;27;20659;-58
2023/09/13 05:02:15;;;;;;;14.10;13.60;;;;;;;-141.02;100.00;40122.50;5135263;27;20196;-58
2023/09/13 05:04:43;;;;;;;14.20;13.70;;;;;;;-141.02;100.00;40170.47;5134697;27;20224;-59
2023/09/13 05:07:10;;;;;;;14.82;14.32;;;;;;;-141.02;100.00;40126.34;5135255;27;20185;-64
2023/09/13 05:09:40;;;;;;;15.18;14.57;;;;;;;-141.02;100.00;40145.53;5135199;27;20275;-58
2023/09/13 05:12:07;;;;;;;15.48;14.88;;;;;;;-141.02;100.00;40180.06;5135120;27;20598;-59
2023/09/13 05:14:36;;;;;;;14.85;14.25;;;;;;;-141.02;100.00;40201.16;5134781;27;20196;-58
2023/09/13 05:17:03;;;;;;;15.02;14.43;;;;;;;-141.02;100.00;40226.09;5135089;27;20196;-58
2023/09/13 05:19:30;;;;;;;15.48;14.88;;;;;;;-141.02;100.00;40247.19;5134674;27;20198;-58
2023/09/13 05:21:57;;;;;;;15.18;14.68;;;;;;;-141.02;100.00;40281.72;5134969;27;20220;-58
2023/09/13 05:24:24;;;;;;;15.30;14.80;;;;;;;-141.02;100.00;40272.13;5134474;27;20223;-58
2023/09/13 05:26:53;;;;;;;15.27;14.75;;;;;;;-141.02;100.00;40308.56;5134844;27;20200;-58
2023/09/13 05:29:19;;;;;;;15.50;14.90;;;;;;;-141.02;100.00;40345.03;5134792;27;20192;-58
2023/09/13 05:31:46;;;;;;;15.52;14.95;;;;;;;-141.02;100.00;40302.81;5134423;27;20570;-58
2023/09/13 05:34:13;;;;;;;16.00;15.40;;;;;;;-141.02;100.00;40325.84;5134499;27;20223;-59
2023/09/13 05:36:41;;;;;;;15.27;14.77;;;;;;;-141.02;100.00;40337.34;5134335;27;20543;-58
2023/09/13 05:39:08;;;;;;;15.60;15.02;;;;;;;-141.02;100.00;40387.22;5134297;27;20246;-58
2023/09/13 05:41:37;;;;;;;15.50;14.90;;;;;;;-141.02;100.00;40343.09;5134567;27;20200;-59
2023/09/13 05:44:09;;;;;;;15.88;15.27;;;;;;;-141.02;100.00;40356.53;5134068;27;20267;-59
2023/09/13 05:46:36;;;;;;;15.60;15.00;;;;;;;-141.02;100.00;40387.22;5133111;27;20245;-60
2023/09/13 05:49:03;;;;;;;15.80;15.20;;;;;;;-141.02;100.00;40410.25;5134037;27;20574;-58
2023/09/13 05:51:31;;;;;;;15.73;15.13;;;;;;;-141.02;100.00;40427.50;5134106;27;20196;-58
2023/09/13 05:53:58;;;;;;;16.17;15.57;;;;;;;-141.02;100.00;40444.78;5134209;27;20227;-57
2023/09/13 05:56:25;;;;;;;15.85;15.25;;;;;;;-141.02;100.00;40440.94;5134254;27;20862;-57
2023/09/13 05:58:52;;;;;;;15.30;14.70;;;;;;;-141.02;100.00;40492.75;5134296;27;20200;-57
2023/09/13 06:01:20;;;;;;;15.90;15.30;;;;;;;-141.02;100.00;40433.28;5134136;27;20196;-57
2023/09/13 06:03:47;;;;;;;16.23;15.55;;;;;;;-141.02;100.00;40500.41;5134023;27;20658;-57
2023/09/13 06:06:14;;;;;;;16.10;15.50;;;;;;;-141.02;100.00;40488.91;5133544;27;20697;-57
2023/09/13 06:08:41;;;;;;;17.33;16.63;;;;;;;-141.02;99.83;40525.34;5133724;27;20658;-57
2023/09/13 06:11:08;;;;;;;16.98;16.27;;;;;;;-141.02;99.39;40582.91;5133976;27;20254;-57
2023/09/13 06:13:35;;;;;;;17.13;16.42;;;;;;;-141.02;98.40;40575.22;5133681;27;20231;-57
2023/09/13 06:16:01;;;;;;;16.90;16.20;;;;;;;-141.02;97.93;40590.59;5133885;27;20196;-57
2023/09/13 06:18:30;;;;;;;17.08;16.38;;;;;;;-141.02;98.06;40592.50;5133475;27;20566;-57
2023/09/13 06:20:57;;;;;;;16.80;16.10;;;;;;;-141.02;97.39;40611.69;5133846;27;20560;-57
2023/09/13 06:23:38;;;;;;;17.55;16.85;;;;;;;-141.02;97.72;40632.78;5133658;27;20192;-57
2023/09/13 06:26:05;;;;;;;17.40;16.70;;;;;;;-141.02;96.09;40663.47;5133470;27;20283;-57
2023/09/13 06:28:32;;;;;;;16.80;16.10;;;;;;;-141.02;96.68;40630.88;5133672;27;20193;-57
2023/09/13 06:31:01;;;;;;;17.40;16.70;;;;;;;-141.02;94.95;40678.84;5133369;27;20287;-57
2023/09/13 06:33:27;;;;;;;17.00;16.30;;;;;;;-141.02;94.73;40724.88;5133230;27;20552;-57
2023/09/13 06:35:57;;;;;;;16.55;15.90;;;;;;;-141.02;94.60;40678.84;5133561;27;20200;-57
2023/09/13 06:38:24;;;;;;;17.50;16.80;;;;;;;-141.02;95.73;40671.16;5134093;27;20663;-57
2023/09/13 06:40:51;;;;;;;17.25;16.55;;;;;;;-141.02;93.59;40730.63;5133479;27;20192;-57
2023/09/13 06:43:19;;;;;;;17.88;17.08;;;;;;;-141.02;93.21;40728.72;5133481;27;20189;-57
2023/09/13 06:45:47;;;;;;;17.63;16.83;;;;;;;-141.02;91.80;40755.56;5133324;27;20261;-57
2023/09/13 06:48:15;;;;;;;17.65;16.85;;;;;;;-141.02;91.88;40778.59;5133084;27;20203;-57
2023/09/13 06:50:42;;;;;;;18.08;17.27;;;;;;;-141.02;90.76;40763.25;5133067;27;20203;-57
2023/09/13 06:53:10;;;;;;;18.05;17.25;;;;;;;-141.02;90.46;40816.97;5133344;27;20189;-57
2023/09/13 06:55:37;;;;;;;17.70;16.90;;;;;;;-141.02;89.21;40826.56;5132957;27;20581;-57
2023/09/13 06:58:06;;;;;;;17.90;17.10;;;;;;;-141.02;89.00;40832.31;5132617;27;20188;-57
2023/09/13 07:00:33;;;;;;;17.88;17.08;;;;;;;-141.02;88.92;40863.00;5132939;27;20196;-57
2023/09/13 07:03:04;;;;;;;17.73;16.92;;;;;;;-141.02;88.06;40932.09;5133221;27;20199;-57
2023/09/13 07:05:30;;;;;;;17.70;16.90;;;;;;;-141.02;87.54;40932.09;5132656;27;20232;-57
2023/09/13 07:07:58;;;;;;;18.00;17.10;;;;;;;-141.02;86.51;40918.66;5133174;27;20189;-57
2023/09/13 07:10:26;;;;;;;18.30;17.40;;;;;;;-141.02;86.07;40951.28;5133097;27;20215;-57
2023/09/13 07:12:53;;;;;;;17.75;16.85;;;;;;;-141.02;84.96;40989.66;5132824;27;20249;-57
2023/09/13 07:15:20;;;;;;;17.95;17.05;;;;;;;-141.02;83.32;41051.03;5133053;27;20236;-57
2023/09/13 07:17:47;;;;;;;18.35;17.45;;;;;;;-141.02;83.66;41070.22;5133354;27;20192;-57
2023/09/13 07:20:14;;;;;;;18.25;17.35;;;;;;;-141.02;80.91;41143.16;5132755;27;20193;-57
2023/09/13 07:22:41;;;;;;;18.25;17.35;;;;;;;-141.02;80.69;41171.94;5133007;27;20199;-57
2023/09/13 07:25:08;;;;;;;18.48;17.48;;;;;;;-141.02;79.76;41319.69;5132664;27;20224;-57
2023/09/13 07:27:36;;;;;;;18.38;17.38;;;;;;;-141.02;78.05;41430.97;5132619;27;20691;-57
2023/09/13 07:30:09;;;;;;;18.73;17.73;;;;;;;-141.02;77.38;41494.31;5133031;27;20192;-57
2023/09/13 07:32:36;;;;;;;18.40;17.40;;;;;;;-141.02;76.22;41571.06;5132990;27;20689;-57
2023/09/13 07:35:04;;;;;;;18.42;17.42;;;;;;;-141.02;74.92;41571.06;5132915;27;20199;-57
2023/09/13 07:37:33;;;;;;;18.38;17.38;;;;;;;-141.02;72.94;41611.34;5132591;27;20197;-57
2023/09/13 07:40:00;;;;;;;18.45;17.45;;;;;;;-141.02;73.03;41643.97;5132888;27;20222;-57
2023/09/13 07:42:27;;;;;;;18.30;17.40;;;;;;;-141.02;72.57;41661.25;5132865;27;20223;-57
2023/09/13 07:44:55;;;;;;;18.08;17.17;;;;;;;-141.02;71.29;41699.63;5132696;27;20315;-57
2023/09/13 07:47:22;;;;;;;18.13;17.23;;;;;;;-141.02;72.13;41722.66;5132849;27;20220;-65
2023/09/13 07:49:49;;;;;;;18.08;17.17;;;;;;;-141.02;71.99;41751.44;5132732;27;20192;-57
2023/09/13 07:52:16;;;;;;;18.20;17.30;;;;;;;-141.02;70.66;41755.28;5132742;27;20200;-57
2023/09/13 07:54:44;;;;;;;17.67;16.77;;;;;;;-141.02;70.07;41795.59;5132737;27;20194;-57
2023/09/13 07:57:11;;;;;;;17.52;16.63;;;;;;;-141.02;70.45;41826.31;5132619;27;20196;-57
2023/09/13 07:59:38;;;;;;;17.88;16.98;;;;;;;-141.02;69.14;41858.94;5132704;27;20279;-58
2023/09/13 08:02:06;;;;;;;18.00;17.10;;;;;;;-141.02;68.90;41916.50;5132342;27;20193;-57
2023/09/13 08:04:33;;;;;;;17.55;16.65;;;;;;;-141.02;68.44;41918.41;5132382;27;20246;-58
2023/09/13 08:07:00;;;;;;;17.48;16.58;;;;;;;-141.02;67.55;41958.72;5132680;27;20203;-57
2023/09/13 08:09:27;;;;;;;17.90;17.00;;;;;;;-141.02;67.06;41968.31;5134117;27;20196;-57
2023/09/13 08:11:55;;;;;;;17.80;16.90;;;;;;;-141.02;66.80;41991.34;5136383;27;20200;-57
2023/09/13 08:14:22;;;;;;;17.67;16.77;;;;;;;-141.02;66.38;42035.50;5135974;27;20711;-57
2023/09/13 08:16:49;;;;;;;17.35;16.45;;;;;;;-141.02;65.17;42083.47;5136284;27;20192;-57
2023/09/13 08:19:17;;;;;;;17.60;16.70;;;;;;;-141.02;65.20;42079.63;5136116;27;20238;-58
2023/09/13 08:21:44;;;;;;;17.75;16.85;;;;;;;-141.02;64.96;42118.03;5135825;27;20189;-58
2023/09/13 08:24:11;;;;;;;17.17;16.38;;;;;;;-141.02;64.66;42144.91;5136025;27;20661;-57
2023/09/13 08:26:38;;;;;;;17.50;16.60;;;;;;;-141.02;64.71;42156.41;5135752;27;20287;-57
2023/09/13 08:29:05;;;;;;;17.15;16.35;;;;;;;-141.02;63.74;42190.97;5136025;27;20189;-57
2023/09/13 08:31:31;;;;;;;17.30;16.50;;;;;;;-141.02;62.97;42196.72;5135647;27;20228;-57
2023/09/13 08:33:58;;;;;;;17.20;16.40;;;;;;;-141.02;62.02;42219.75;5135900;27;20198;-57
2023/09/13 08:36:27;;;;;;;17.08;16.27;;;;;;;-141.02;60.27;42246.63;5135902;27;20197;-57
2023/09/13 08:38:54;;;;;;;17.38;16.58;;;;;;;-141.02;58.04;42298.44;5135768;27;20194;-57
2023/09/13 08:41:20;;;;;;;17.17;16.38;;;;;;;-141.02;60.31;42317.66;5135810;27;20192;-57
2023/09/13 08:43:50;;;;;;;17.33;16.52;;;;;;;-141.02;60.27;42342.59;5135615;27;20196;-57
2023/09/13 08:46:19;;;;;;;17.50;16.67;;;;;;;-141.02;59.97;42369.47;5135318;27;20351;-57
2023/09/13 08:48:48;;;;;;;18.20;17.30;;;;;;;-141.02;57.83;42367.56;5135287;27;20291;-57
2023/09/13 08:51:17;;;;;;;17.88;16.98;;;;;;;-141.02;57.63;42398.25;5135314;27;20231;-57
2023/09/13 08:53:48;;;;;;;17.98;17.08;;;;;;;-141.02;58.60;42411.69;5135235;27;20202;-57
2023/09/13 08:56:15;;;;;;;18.17;17.27;;;;;;;-141.02;57.14;42432.81;5135172;27;20200;-57
2023/09/13 08:58:42;;;;;;;18.17;17.27;;;;;;;-141.02;55.95;42459.69;5135099;27;20658;-57
2023/09/13 09:01:12;;;;;;;17.98;17.08;;;;;;;-141.02;57.29;42494.25;5135322;27;20196;-59
2023/09/13 09:03:40;;;;;;;17.90;17.00;;;;;;;-141.02;57.05;42490.41;5135074;27;20713;-58
2023/09/13 09:06:09;;;;;;;18.25;17.35;;;;;;;-141.02;55.35;42480.81;5134698;27;20326;-57
2023/09/13 09:08:39;;;;;;;18.15;17.25;;;;;;;-141.02;54.60;42500.00;5135331;27;20280;-57
2023/09/13 09:11:09;;;;;;;17.85;16.98;;;;;;;-141.02;54.79;42546.06;5135250;27;20188;-57
2023/09/13 09:13:39;;;;;;;18.30;17.40;;;;;;;-141.02;55.26;42536.47;5135153;27;20196;-57
2023/09/13 09:16:08;;;;;;;18.17;17.27;;;;;;;-141.02;54.85;42574.88;5135309;27;20291;-57
2023/09/13 09:18:38;;;;;;;18.05;17.15;;;;;;;-141.02;55.05;42551.81;5135043;27;20215;-58
2023/09/13 09:21:06;;;;;;;17.88;17.10;;;;;;;-141.02;55.60;42630.53;5134559;27;20642;-57
2023/09/13 09:23:37;;;;;;;17.90;17.10;;;;;;;-141.02;55.61;42609.41;5134937;27;20196;-57
2023/09/13 09:26:05;;;;;;;16.58;15.88;;;;;;;-141.02;54.60;42580.63;5134585;27;20259;-57
2023/09/13 09:28:34;;;;;;;16.92;16.23;;;;;;;-141.02;54.13;42605.56;5134820;27;20224;-57
2023/09/13 09:31:02;;;;;;;17.23;16.45;;;;;;;-141.02;53.63;42582.53;5134764;27;20275;-57
2023/09/13 09:33:30;;;;;;;17.80;17.00;;;;;;;-141.02;53.45;42632.44;5134727;27;20196;-57
2023/09/13 09:36:00;;;;;;;17.42;16.63;;;;;;;-141.02;53.40;42643.97;5134387;27;20199;-58
2023/09/13 09:38:29;;;;;;;16.50;15.80;;;;;;;-141.02;52.97;42659.31;5134680;27;20192;-57
2023/09/13 09:40:58;;;;;;;17.25;16.45;;;;;;;-141.02;52.91;42649.72;5134545;27;20218;-58
2023/09/13 09:43:25;;;;;;;17.38;16.58;;;;;;;-141.02;52.45;42628.63;5134599;27;20200;-58
2023/09/13 09:45:54;;;;;;;17.35;16.55;;;;;;;-141.02;52.63;42670.84;5134024;27;20227;-58
2023/09/13 09:48:21;;;;;;;17.42;16.63;;;;;;;-141.02;52.15;42651.66;5134507;27;20188;-57
2023/09/13 09:50:52;;;;;;;17.52;16.73;;;;;;;-141.02;51.35;42655.47;5134054;27;20200;-58
2023/09/13 09:53:20;;;;;;;17.33;16.52;;;;;;;-141.02;51.70;42732.28;5134020;27;20682;-57
2023/09/13 09:55:47;;;;;;;17.15;16.35;;;;;;;-141.02;51.49;42753.38;5133973;27;20567;-58
2023/09/13 09:58:15;;;;;;;17.05;16.25;;;;;;;-141.02;51.12;42753.38;5133955;27;20593;-58
2023/09/13 10:00:50;;;;;;;17.02;16.23;;;;;;;-141.02;50.91;42745.72;5134230;27;20227;-57
2023/09/13 10:03:19;;;;;;;17.08;16.27;;;;;;;-141.02;50.50;42734.19;5134198;27;20192;-57
2023/09/13 10:06:03;;;;;;;17.45;16.65;;;;;;;-141.02;49.53;42766.81;5133718;27;20236;-58
2023/09/13 10:08:40;;;;;;;16.92;16.13;;;;;;;-141.02;48.53;42801.38;5133831;27;20235;-58
2023/09/13 10:11:08;;;;;;;17.23;16.42;;;;;;;-141.02;49.50;42812.91;5134024;27;20189;-57
2023/09/13 10:13:36;;;;;;;17.25;16.45;;;;;;;-141.02;49.40;42839.78;5133972;27;20188;-58
2023/09/13 10:16:04;;;;;;;17.27;16.48;;;;;;;-141.02;49.09;42866.66;5133597;27;20193;-57
2023/09/13 10:18:38;;;;;;;17.10;16.30;;;;;;;-141.02;49.17;42874.34;5133867;27;20347;-58
2023/09/13 10:21:06;;;;;;;17.42;16.63;;;;;;;-141.02;48.76;42874.34;5133893;27;20185;-58
2023/09/13 10:23:47;;;;;;;17.48;16.67;;;;;;;-141.02;48.85;42906.97;5133781;27;20588;-58
2023/09/13 10:26:14;;;;;;;17.25;16.45;;;;;;;-141.02;48.42;42887.78;5133406;27;20595;-58
2023/09/13 10:28:45;;;;;;;17.13;16.33;;;;;;;-141.02;48.44;42906.97;5133407;27;20211;-58
2023/09/13 10:31:17;;;;;;;17.50;16.70;;;;;;;-141.02;46.98;42918.50;5133250;27;20195;-58
2023/09/13 10:33:52;;;;;;;17.45;16.65;;;;;;;-141.02;48.23;42951.13;5133665;27;20568;-57
2023/09/13 10:36:25;;;;;;;17.80;16.90;;;;;;;-141.02;47.51;42951.13;5133375;27;20232;-57
2023/09/13 10:39:02;;;;;;;17.60;16.70;;;;;;;-141.02;47.78;42951.13;5133226;27;20630;-57
2023/09/13 10:41:34;;;;;;;17.42;16.63;;;;;;;-141.02;48.18;42989.53;5133531;27;20567;-64
2023/09/13 10:44:03;;;;;;;17.40;16.60;;;;;;;-141.02;48.27;42983.75;5133198;27;20188;-57
2023/09/13 10:46:31;;;;;;;17.15;16.35;;;;;;;-141.02;47.53;43008.72;5133406;27;20235;-57
2023/09/13 10:49:00;;;;;;;17.20;16.40;;;;;;;-141.02;47.46;43001.03;5133376;27;20193;-57
2023/09/13 10:51:31;;;;;;;17.27;16.58;;;;;;;-141.02;47.66;43016.41;5133431;27;20275;-58
2023/09/13 10:53:59;;;;;;;17.65;16.85;;;;;;;-141.02;46.79;43001.03;5133304;27;20185;-57
2023/09/13 10:56:26;;;;;;;17.38;16.58;;;;;;;-141.02;47.51;43035.59;5133288;27;20193;-57
2023/09/13 10:58:55;;;;;;;17.30;16.50;;;;;;;-141.02;47.54;42997.19;5133252;27;20199;-57
2023/09/13 11:01:24;;;;;;;17.10;16.30;;;;;;;-141.02;47.28;43029.84;5133218;27;20199;-58
2023/09/13 11:03:51;;;;;;;17.20;16.40;;;;;;;-141.02;46.98;43004.88;5132865;27;20193;-58